Time;durP1;ratioP1;P1;durP2;ratioP2;P2;SDS_P1;SDS_P2;PMS_P1;PMS_P2;Temp;Humidity;BMP_temperature;BMP_pressure;BME280_temperature;BME280_humidity;BME280_pressure;Samples;Min_cycle;Max_cycle;Signal;HPM_P1;HPM_P2
2022/05/21 00:02:37;;;;;;;10.25;2.60;;;26.20;36.80;;;;;;7672626;23;20320;-68
2022/05/21 00:05:39;;;;;;;7.97;2.05;;;26.10;36.80;;;;;;7647036;23;20024;-68
2022/05/21 00:08:40;;;;;;;14.77;1.95;;;26.10;36.90;;;;;;7647220;23;20013;-68
2022/05/21 00:11:41;;;;;;;4.47;1.70;;;26.10;37.00;;;;;;7622397;23;20032;-69
2022/05/21 00:14:41;;;;;;;5.68;2.00;;;26.00;37.00;;;;;;7645559;23;20017;-69
2022/05/21 00:17:43;;;;;;;5.13;1.77;;;26.00;37.00;;;;;;7673115;23;20096;-69
2022/05/21 00:20:49;;;;;;;7.20;2.50;;;26.00;37.00;;;;;;7671111;23;20047;-69
2022/05/21 00:23:51;;;;;;;6.55;2.00;;;26.00;37.00;;;;;;7647296;23;20021;-69
2022/05/21 00:26:53;;;;;;;11.27;2.13;;;26.00;37.10;;;;;;7621553;23;20017;-69
2022/05/21 00:29:54;;;;;;;5.32;1.80;;;26.00;37.20;;;;;;7622431;23;20013;-69
2022/05/21 00:32:55;;;;;;;6.32;2.53;;;26.00;37.20;;;;;;7631295;23;20056;-69
2022/05/21 00:35:57;;;;;;;5.15;1.67;;;26.00;37.30;;;;;;7671604;23;20972;-69
2022/05/21 00:38:58;;;;;;;12.30;1.98;;;25.90;37.30;;;;;;7647550;23;20017;-69
2022/05/21 00:42:06;;;;;;;8.20;1.92;;;25.90;37.40;;;;;;7621576;23;20096;-68
2022/05/21 00:45:08;;;;;;;11.18;2.10;;;25.90;37.60;;;;;;7671308;23;20363;-68
2022/05/21 00:48:08;;;;;;;6.00;2.13;;;25.90;37.50;;;;;;7673637;23;20075;-68
2022/05/21 00:51:21;;;;;;;8.55;2.08;;;26.00;37.50;;;;;;7673025;23;20025;-69
2022/05/21 00:54:34;;;;;;;2.85;1.67;;;26.00;37.40;;;;;;7673004;23;20433;-69
2022/05/21 00:57:40;;;;;;;5.53;2.55;;;26.00;37.30;;;;;;7672091;23;20425;-69
2022/05/21 01:00:41;;;;;;;8.52;1.92;;;26.10;37.30;;;;;;7671950;23;20040;-68
2022/05/21 01:03:43;;;;;;;6.43;1.98;;;26.10;37.20;;;;;;7671102;23;20021;-68
2022/05/21 01:06:44;;;;;;;9.82;2.55;;;26.00;37.20;;;;;;7671553;23;20429;-69
2022/05/21 01:09:52;;;;;;;8.63;1.88;;;26.00;37.20;;;;;;7672305;23;20442;-68
2022/05/21 01:12:56;;;;;;;9.05;2.10;;;25.90;37.30;;;;;;7674424;23;20033;-68
2022/05/21 01:15:58;;;;;;;8.23;1.70;;;25.90;37.60;;;;;;7672907;23;20017;-69
2022/05/21 01:19:05;;;;;;;3.45;1.75;;;25.90;37.60;;;;;;7672767;23;20328;-70
2022/05/21 01:22:05;;;;;;;8.30;1.90;;;25.90;37.50;;;;;;7623144;23;20016;-69
2022/05/21 01:25:07;;;;;;;13.60;2.28;;;26.00;37.40;;;;;;7623204;23;20036;-69
2022/05/21 01:28:13;;;;;;;8.50;1.67;;;25.90;37.40;;;;;;7623142;23;20058;-68
2022/05/21 01:31:14;;;;;;;8.63;1.90;;;25.90;37.50;;;;;;7611725;23;20029;-68
2022/05/21 01:34:15;;;;;;;6.68;2.10;;;25.80;37.50;;;;;;7660734;23;20021;-68
2022/05/21 01:37:17;;;;;;;15.60;2.13;;;25.70;37.60;;;;;;7636933;23;20024;-69
2022/05/21 01:40:18;;;;;;;6.50;2.17;;;25.70;37.60;;;;;;7662583;23;20013;-69
2022/05/21 01:46:39;;;;;;;6.63;2.00;;;25.60;37.40;;;;;;7675589;23;20022;-69
2022/05/21 01:49:41;;;;;;;7.32;2.08;;;25.50;37.30;;;;;;7675205;23;20017;-69
2022/05/21 01:52:42;;;;;;;13.82;2.30;;;25.50;37.30;;;;;;7676650;23;20040;-69
2022/05/21 01:55:44;;;;;;;10.65;3.33;;;25.50;37.50;;;;;;7675209;23;20101;-69
2022/05/21 01:58:45;;;;;;;6.13;1.90;;;25.40;37.80;;;;;;7674970;23;20435;-69
2022/05/21 02:01:48;;;;;;;5.75;2.38;;;25.40;37.90;;;;;;7675234;23;20017;-69
2022/05/21 02:04:49;;;;;;;6.57;2.25;;;25.30;38.00;;;;;;7675529;23;20026;-69
2022/05/21 02:07:50;;;;;;;4.20;1.83;;;25.30;38.10;;;;;;7675982;23;20079;-69
2022/05/21 02:10:52;;;;;;;8.73;1.90;;;25.30;38.20;;;;;;7669063;23;20016;-69
2022/05/21 02:13:52;;;;;;;7.78;2.00;;;25.30;38.30;;;;;;7673586;23;20044;-69
2022/05/21 02:16:53;;;;;;;5.80;2.00;;;25.30;38.50;;;;;;7675274;23;20013;-69
2022/05/21 02:19:55;;;;;;;6.60;1.77;;;25.30;38.40;;;;;;7674482;23;20056;-69
2022/05/21 02:22:56;;;;;;;5.43;2.03;;;25.30;38.40;;;;;;7674691;23;20009;-69
2022/05/21 02:26:00;;;;;;;13.27;2.38;;;25.30;38.40;;;;;;7676610;23;20020;-69
2022/05/21 02:29:01;;;;;;;12.25;2.00;;;25.20;38.50;;;;;;7675131;23;20013;-68
2022/05/21 02:32:02;;;;;;;6.35;2.30;;;25.20;38.70;;;;;;7674031;23;20051;-69
2022/05/21 02:35:04;;;;;;;6.38;2.67;;;25.30;38.70;;;;;;7676523;23;20036;-68
2022/05/21 02:41:24;;;;;;;8.23;2.63;;;25.20;38.80;;;;;;7674496;23;20024;-69
2022/05/21 02:44:26;;;;;;;7.60;2.33;;;25.20;38.90;;;;;;7673192;23;20013;-69
2022/05/21 02:47:28;;;;;;;6.32;2.08;;;25.20;39.10;;;;;;7674925;23;20301;-69
2022/05/21 02:50:35;;;;;;;4.50;2.10;;;25.10;39.10;;;;;;7673039;23;20013;-69
2022/05/21 02:53:37;;;;;;;5.35;2.42;;;25.10;39.10;;;;;;7670382;23;20194;-69
2022/05/21 02:56:44;;;;;;;7.97;2.33;;;25.10;38.90;;;;;;7672729;23;20025;-69
2022/05/21 02:59:48;;;;;;;12.85;2.13;;;25.10;38.90;;;;;;7674530;23;20016;-69
2022/05/21 03:02:50;;;;;;;4.43;2.10;;;25.10;38.80;;;;;;7672699;23;20305;-69
2022/05/21 03:05:51;;;;;;;5.28;1.85;;;24.90;38.80;;;;;;7672951;23;20059;-69
2022/05/21 03:12:12;;;;;;;4.07;2.20;;;24.80;38.90;;;;;;7673179;23;20108;-68
2022/05/21 03:15:12;;;;;;;5.60;1.92;;;24.70;39.10;;;;;;7674159;23;20017;-67
2022/05/21 03:18:15;;;;;;;6.30;2.20;;;24.60;39.20;;;;;;7672501;23;20017;-68
2022/05/21 03:21:18;;;;;;;5.43;2.03;;;24.60;39.20;;;;;;7672030;23;20032;-68
2022/05/21 03:24:19;;;;;;;5.55;2.28;;;24.50;39.20;;;;;;7673106;23;20021;-70
2022/05/21 03:27:20;;;;;;;6.38;2.10;;;24.50;39.30;;;;;;7672760;23;20017;-69
2022/05/21 03:30:24;;;;;;;4.97;2.17;;;24.50;39.40;;;;;;7674953;23;20025;-70
2022/05/21 03:33:25;;;;;;;8.15;2.25;;;24.40;39.50;;;;;;7648264;23;20024;-69
2022/05/21 03:36:26;;;;;;;6.40;3.08;;;24.40;39.50;;;;;;7672204;23;20013;-69
2022/05/21 03:39:28;;;;;;;5.60;1.85;;;24.30;39.90;;;;;;7648224;23;20028;-68
2022/05/21 03:42:29;;;;;;;5.65;1.73;;;24.30;40.10;;;;;;7672154;23;20009;-69
2022/05/21 03:45:30;;;;;;;5.20;2.10;;;24.20;40.30;;;;;;7674506;23;20017;-69
2022/05/21 03:48:31;;;;;;;3.88;1.77;;;24.20;40.40;;;;;;7672468;23;20024;-69
2022/05/21 03:51:33;;;;;;;6.43;1.88;;;24.10;40.40;;;;;;7671796;23;20405;-69
2022/05/21 03:54:34;;;;;;;5.50;2.20;;;24.10;40.40;;;;;;7672401;23;20016;-69
2022/05/21 03:57:36;;;;;;;9.63;2.25;;;24.00;40.50;;;;;;7672363;23;20013;-69
2022/05/21 04:00:38;;;;;;;5.38;1.67;;;24.10;40.70;;;;;;7673858;23;20020;-69
2022/05/21 04:03:39;;;;;;;6.50;2.13;;;24.30;40.50;;;;;;7671577;23;20035;-69
2022/05/21 04:06:40;;;;;;;3.17;1.88;;;24.30;40.20;;;;;;7672100;23;20447;-69
2022/05/21 04:09:42;;;;;;;9.18;2.20;;;24.40;40.20;;;;;;7672402;23;20328;-69
2022/05/21 04:12:43;;;;;;;5.15;1.73;;;24.40;40.30;;;;;;7673930;23;20087;-69
2022/05/21 04:15:45;;;;;;;6.55;2.67;;;24.30;40.40;;;;;;7673491;23;20116;-69
2022/05/21 04:18:46;;;;;;;3.58;1.80;;;24.20;40.50;;;;;;7672405;23;20051;-70
2022/05/21 04:21:46;;;;;;;6.78;2.00;;;24.30;40.60;;;;;;7709643;23;20083;-69
2022/05/21 04:24:47;;;;;;;8.27;2.40;;;24.20;40.60;;;;;;7667354;23;20103;-68
2022/05/21 04:27:48;;;;;;;4.18;1.70;;;24.20;40.60;;;;;;7657861;23;20016;-69
2022/05/21 04:30:52;;;;;;;5.95;2.13;;;24.20;40.60;;;;;;7683597;23;20031;-70
2022/05/21 04:33:54;;;;;;;4.97;1.98;;;24.10;40.50;;;;;;7619583;23;20316;-68
2022/05/21 04:36:55;;;;;;;4.88;2.10;;;24.10;40.40;;;;;;7682293;23;20020;-69
2022/05/21 04:39:56;;;;;;;6.18;2.45;;;24.00;40.40;;;;;;7667614;23;20408;-68
2022/05/21 04:42:57;;;;;;;3.58;1.95;;;24.00;40.40;;;;;;7708241;23;20095;-71
2022/05/21 04:45:58;;;;;;;6.60;2.35;;;23.90;40.40;;;;;;7656839;23;20339;-69
2022/05/21 04:49:03;;;;;;;4.70;2.05;;;23.90;40.40;;;;;;7657677;23;20082;-70
2022/05/21 04:52:05;;;;;;;7.53;2.30;;;23.90;40.40;;;;;;7681555;23;20025;-68
2022/05/21 04:55:08;;;;;;;4.22;2.10;;;23.90;40.40;;;;;;7659502;23;20028;-70
2022/05/21 04:58:09;;;;;;;5.40;2.00;;;24.00;40.40;;;;;;7706395;23;20087;-70
2022/05/21 05:01:10;;;;;;;4.40;2.70;;;24.00;40.40;;;;;;7693165;23;20078;-69
2022/05/21 05:04:11;;;;;;;4.70;2.17;;;24.00;40.30;;;;;;7694238;23;20017;-69
2022/05/21 05:07:12;;;;;;;4.28;2.28;;;24.00;40.30;;;;;;7658922;23;20021;-69
2022/05/21 05:10:15;;;;;;;4.63;2.28;;;23.90;40.40;;;;;;7685394;23;20155;-68
2022/05/21 05:13:17;;;;;;;6.05;2.13;;;23.90;40.40;;;;;;7685498;23;20348;-68
2022/05/21 05:16:18;;;;;;;7.00;2.47;;;23.80;40.50;;;;;;7661914;23;20020;-69
2022/05/21 05:19:19;;;;;;;8.02;2.38;;;23.80;40.60;;;;;;7688316;23;20035;-67
2022/05/21 05:22:21;;;;;;;4.45;1.73;;;23.80;40.70;;;;;;7714136;23;20030;-70
2022/05/21 05:25:22;;;;;;;4.45;2.05;;;23.80;41.00;;;;;;7687913;23;20461;-69
2022/05/21 05:28:23;;;;;;;7.25;2.22;;;23.80;41.00;;;;;;7713783;23;20439;-67
2022/05/21 05:31:24;;;;;;;3.95;2.03;;;23.80;41.00;;;;;;7687761;23;20304;-68
2022/05/21 05:34:25;;;;;;;4.88;2.22;;;23.80;41.00;;;;;;7713534;23;20013;-69
2022/05/21 05:37:26;;;;;;;11.23;2.70;;;23.90;41.00;;;;;;7687112;23;20028;-69
2022/05/21 05:40:28;;;;;;;5.65;2.38;;;23.90;41.00;;;;;;7687229;23;20079;-68
2022/05/21 05:43:29;;;;;;;5.38;2.33;;;23.90;41.10;;;;;;7673766;23;20366;-69
2022/05/21 05:46:29;;;;;;;5.70;2.65;;;23.90;41.10;;;;;;7713562;23;20017;-68
2022/05/21 05:49:30;;;;;;;9.93;2.40;;;23.90;41.20;;;;;;7713863;23;20095;-68
2022/05/21 05:52:31;;;;;;;11.63;2.80;;;23.90;41.10;;;;;;7685361;23;20017;-68
2022/05/21 05:55:35;;;;;;;4.53;2.05;;;24.00;41.10;;;;;;7713961;23;20016;-68
2022/05/21 06:05:33;;;;;;;7.78;2.60;;;24.00;41.20;;;;;;7535611;23;20023;-68
2022/05/21 06:08:34;;;;;;;8.77;2.35;;;24.10;41.10;;;;;;7537883;23;20268;-68
2022/05/21 06:11:38;;;;;;;8.82;2.40;;;24.20;41.10;;;;;;7561600;23;20018;-68
2022/05/21 06:14:38;;;;;;;4.00;1.98;;;24.20;41.00;;;;;;7513605;23;20049;-69
2022/05/21 06:17:40;;;;;;;3.05;2.15;;;24.30;40.90;;;;;;7537390;23;20085;-70
2022/05/21 06:20:43;;;;;;;5.20;2.40;;;24.30;40.60;;;;;;7534434;23;20033;-70
2022/05/21 06:23:44;;;;;;;4.30;2.22;;;24.40;40.50;;;;;;7536482;23;20299;-70
2022/05/21 06:26:45;;;;;;;6.18;2.42;;;24.50;40.20;;;;;;7561303;23;20181;-70
2022/05/21 06:29:47;;;;;;;5.60;2.65;;;24.50;40.00;;;;;;7536315;23;20493;-69
2022/05/21 06:32:49;;;;;;;6.70;2.20;;;24.60;40.00;;;;;;7535950;23;20029;-70
2022/05/21 06:36:11;;;;;;;3.10;2.20;;;24.60;39.80;;;;;;7537265;23;20018;-69
2022/05/21 06:39:12;;;;;;;5.43;1.90;;;24.70;40.30;;;;;;7591685;23;20324;-69
2022/05/21 06:42:13;;;;;;;3.55;1.85;;;24.80;39.40;;;;;;7673112;23;20037;-69
2022/05/21 06:45:14;;;;;;;7.43;2.10;;;24.90;39.30;;;;;;7672818;23;20092;-69
2022/05/21 06:48:15;;;;;;;5.15;2.08;;;25.00;39.30;;;;;;7674423;23;20021;-69
2022/05/21 06:51:16;;;;;;;4.07;1.75;;;25.10;39.10;;;;;;7672969;23;20021;-68
2022/05/21 06:54:17;;;;;;;2.90;1.95;;;25.20;38.90;;;;;;7647787;23;20028;-69
2022/05/21 06:57:19;;;;;;;4.82;2.30;;;25.20;38.60;;;;;;7659345;23;20312;-69
2022/05/21 07:00:22;;;;;;;6.03;2.03;;;25.30;38.60;;;;;;7672389;23;20013;-69
2022/05/21 07:03:23;;;;;;;8.52;2.25;;;25.40;38.40;;;;;;7672323;23;20017;-69
2022/05/21 07:09:43;;;;;;;8.40;2.42;;;25.60;38.20;;;;;;7673841;23;20013;-68
2022/05/21 07:12:45;;;;;;;7.75;2.17;;;25.70;38.10;;;;;;7636663;23;20021;-68
2022/05/21 07:15:48;;;;;;;12.50;2.75;;;25.80;38.10;;;;;;7636635;23;20017;-68
2022/05/21 07:18:48;;;;;;;9.13;2.70;;;25.90;38.00;;;;;;7647696;23;20017;-68
2022/05/21 07:21:51;;;;;;;5.28;2.28;;;26.00;37.80;;;;;;7647924;23;20095;-68
2022/05/21 07:24:52;;;;;;;8.57;2.20;;;26.20;37.50;;;;;;7647453;23;20013;-69
2022/05/21 07:27:53;;;;;;;6.43;2.40;;;26.30;37.20;;;;;;7672995;23;20012;-69
2022/05/21 07:30:53;;;;;;;5.60;2.10;;;26.40;37.00;;;;;;7673453;23;20051;-68
2022/05/21 07:33:54;;;;;;;4.97;2.72;;;26.60;36.90;;;;;;7672432;23;20017;-68
2022/05/21 07:36:55;;;;;;;11.80;2.88;;;26.70;36.70;;;;;;7646604;23;20021;-68
2022/05/21 07:39:56;;;;;;;4.53;2.55;;;26.90;36.60;;;;;;7646464;23;20024;-68
2022/05/21 07:42:57;;;;;;;5.55;2.00;;;27.00;36.30;;;;;;7673250;23;20025;-69
2022/05/21 07:45:58;;;;;;;2.92;2.10;;;27.10;36.10;;;;;;7647159;23;20063;-70
2022/05/21 07:48:59;;;;;;;4.07;2.30;;;27.20;35.90;;;;;;7641095;23;20087;-71
2022/05/21 07:52:00;;;;;;;5.28;2.50;;;27.40;35.70;;;;;;7646905;23;20016;-69
2022/05/21 07:55:01;;;;;;;4.57;2.20;;;27.40;35.60;;;;;;7672929;23;20028;-68
2022/05/21 07:58:02;;;;;;;6.97;2.53;;;27.50;35.50;;;;;;7671239;23;20017;-69
2022/05/21 08:01:03;;;;;;;6.90;3.47;;;27.70;35.40;;;;;;7672556;23;20013;-69
2022/05/21 08:04:04;;;;;;;5.10;2.75;;;27.90;35.40;;;;;;7672344;23;20021;-69
2022/05/21 08:07:05;;;;;;;4.18;2.15;;;28.10;35.20;;;;;;7672724;23;20025;-69
2022/05/21 08:10:07;;;;;;;8.98;2.47;;;28.30;35.00;;;;;;7646432;23;20024;-69
2022/05/21 08:13:10;;;;;;;8.02;2.33;;;28.40;34.70;;;;;;7671946;23;20107;-69
2022/05/21 08:16:11;;;;;;;3.47;2.40;;;28.60;34.60;;;;;;7672178;23;20024;-69
2022/05/21 08:19:12;;;;;;;10.45;2.35;;;28.70;34.30;;;;;;7624461;23;20106;-70
2022/05/21 08:28:52;;;;;;;4.22;2.10;;;29.10;34.30;;;;;;7709268;23;20017;-69
2022/05/21 08:31:54;;;;;;;5.63;2.17;;;29.20;33.80;;;;;;7657907;23;20328;-70
2022/05/21 08:34:55;;;;;;;22.95;2.97;;;29.10;33.50;;;;;;7681343;23;20434;-70
2022/05/21 08:37:56;;;;;;;15.30;2.85;;;29.10;33.70;;;;;;7683017;23;20066;-69
2022/05/21 08:41:10;;;;;;;6.07;2.63;;;28.70;34.60;;;;;;7682837;23;20103;-70
2022/05/21 08:44:18;;;;;;;10.50;3.05;;;28.10;36.00;;;;;;7709699;23;20088;-69
2022/05/21 08:47:35;;;;;;;5.78;2.70;;;27.70;36.10;;;;;;7682831;23;20008;-69
2022/05/21 08:50:42;;;;;;;7.20;2.50;;;27.50;36.80;;;;;;7708918;23;20423;-69
2022/05/21 08:53:49;;;;;;;13.30;2.40;;;27.50;36.80;;;;;;7709196;23;20020;-69
2022/05/21 08:56:55;;;;;;;10.10;2.72;;;27.70;36.60;;;;;;7683717;23;20032;-69
2022/05/21 09:00:06;;;;;;;6.53;2.72;;;27.90;36.00;;;;;;7709008;23;20021;-69
2022/05/21 09:03:11;;;;;;;5.93;2.65;;;28.00;35.90;;;;;;7682436;23;20019;-69
2022/05/21 09:06:29;;;;;;;4.43;2.10;;;28.20;35.70;;;;;;7709117;23;20012;-69
2022/05/21 09:09:48;;;;;;;7.75;2.70;;;28.40;35.50;;;;;;7706335;23;20419;-70
2022/05/21 09:12:57;;;;;;;8.15;2.67;;;28.70;35.50;;;;;;7682034;23;20021;-69
2022/05/21 09:19:18;;;;;;;6.75;2.22;;;29.10;35.00;;;;;;7675885;23;20025;-68
2022/05/21 09:22:20;;;;;;;5.85;2.47;;;29.30;35.00;;;;;;7671646;23;20036;-70
2022/05/21 09:25:26;;;;;;;7.88;2.30;;;29.40;34.70;;;;;;7671084;23;20384;-70
2022/05/21 09:28:28;;;;;;;5.45;2.60;;;29.50;34.20;;;;;;7645443;23;20059;-69
2022/05/21 09:31:31;;;;;;;4.85;2.60;;;29.60;33.70;;;;;;7644616;23;20021;-69
2022/05/21 09:34:35;;;;;;;4.40;2.35;;;29.70;33.60;;;;;;7647094;23;20440;-69
2022/05/21 09:37:36;;;;;;;5.53;3.30;;;29.80;33.60;;;;;;7673047;23;20021;-69
2022/05/21 09:40:39;;;;;;;6.72;3.08;;;29.90;33.50;;;;;;7648003;23;20028;-69
2022/05/21 09:47:16;;;;;;;3.80;2.65;;;30.10;33.10;;;;;;7642500;23;20435;-70
2022/05/21 09:50:23;;;;;;;7.68;2.78;;;30.20;33.00;;;;;;7634557;23;20056;-69
2022/05/21 09:53:28;;;;;;;;;;;30.30;32.50;;;;;;7633904;23;20028;-68
2022/05/21 09:56:32;;;;;;;6.43;2.65;;;30.40;32.70;;;;;;7635048;23;20019;-70
2022/05/21 09:59:33;;;;;;;6.70;2.83;;;30.40;32.30;;;;;;7610496;23;20028;-70
2022/05/21 10:02:41;;;;;;;8.98;2.45;;;30.50;32.20;;;;;;7635063;23;20018;-69
2022/05/21 10:05:47;;;;;;;;;;;30.50;32.20;;;;;;7635844;23;20021;-70
2022/05/21 10:12:37;;;;;;;11.25;2.55;;;30.60;31.80;;;;;;7643239;23;20080;-69
2022/05/21 10:15:43;;;;;;;6.68;2.55;;;30.60;31.70;;;;;;7585724;23;20021;-69
2022/05/21 10:18:57;;;;;;;5.68;2.95;;;30.60;31.50;;;;;;7641205;23;20093;-70
2022/05/21 10:22:23;;;;;;;4.47;1.92;;;30.70;31.50;;;;;;7632140;23;20108;-70
2022/05/21 10:25:32;;;;;;;4.10;2.10;;;30.70;31.40;;;;;;7635045;23;20088;-70
2022/05/21 10:28:41;;;;;;;6.78;2.03;;;30.80;31.60;;;;;;7636465;23;20093;-70
2022/05/21 10:31:57;;;;;;;15.90;2.67;;;30.90;31.40;;;;;;7636365;23;20044;-69
2022/05/21 10:35:19;;;;;;;5.00;2.22;;;31.00;31.40;;;;;;7647550;23;20199;-70
2022/05/21 10:38:41;;;;;;;6.32;2.50;;;31.10;31.10;;;;;;7642531;23;20052;-69
2022/05/21 10:42:09;;;;;;;9.10;2.50;;;31.20;31.00;;;;;;7623871;23;20088;-69
2022/05/21 10:45:33;;;;;;;6.07;2.22;;;31.20;30.90;;;;;;7633870;23;20397;-69
2022/05/21 10:48:43;;;;;;;4.32;1.98;;;31.20;31.00;;;;;;7624039;23;20338;-69
2022/05/21 10:52:02;;;;;;;8.05;2.20;;;31.20;30.90;;;;;;7633486;23;20124;-69
2022/05/21 10:55:21;;;;;;;6.82;2.42;;;31.30;30.90;;;;;;7645400;23;20017;-69
2022/05/21 10:58:38;;;;;;;4.22;1.95;;;31.60;30.80;;;;;;7644913;23;20312;-69
2022/05/21 11:02:17;;;;;;;4.30;1.92;;;32.50;29.80;;;;;;7607066;23;20037;-70
2022/05/21 11:05:42;;;;;;;6.38;2.22;;;33.40;28.80;;;;;;7600952;23;20028;-70
2022/05/21 11:09:10;;;;;;;5.38;2.22;;;34.20;28.00;;;;;;7630119;23;20006;-69
2022/05/21 11:12:20;;;;;;;3.47;2.03;;;34.90;27.40;;;;;;7632155;23;20025;-69
2022/05/21 11:15:39;;;;;;;4.07;2.15;;;35.60;26.90;;;;;;7634565;23;20084;-69
2022/05/21 11:18:43;;;;;;;3.22;1.90;;;36.00;26.50;;;;;;7633513;23;20021;-69
2022/05/21 11:21:51;;;;;;;2.45;1.98;;;36.20;26.00;;;;;;7667567;23;20057;-70
2022/05/21 11:24:58;;;;;;;10.47;2.63;;;36.30;25.90;;;;;;7669495;23;20021;-70
2022/05/21 11:28:23;;;;;;;8.43;2.22;;;36.40;26.00;;;;;;7644566;23;20021;-69
2022/05/21 11:39:07;;;;;;;7.93;2.03;;;37.70;25.50;;;;;;7578644;23;20096;-69
2022/05/21 11:42:14;;;;;;;10.48;2.03;;;38.00;25.30;;;;;;7596226;23;20010;-70
2022/05/21 11:45:25;;;;;;;8.63;2.50;;;38.10;25.20;;;;;;7549656;23;20017;-70
2022/05/21 11:48:29;;;;;;;4.05;2.83;;;38.20;25.10;;;;;;7596744;23;20017;-69
2022/05/21 11:51:30;;;;;;;4.97;2.25;;;38.10;25.20;;;;;;7597151;23;20353;-70
2022/05/21 11:54:49;;;;;;;6.72;2.38;;;38.10;25.20;;;;;;7573043;23;20040;-69
2022/05/21 11:57:54;;;;;;;5.47;2.20;;;38.10;25.20;;;;;;7596743;23;20442;-70
2022/05/21 12:00:55;;;;;;;6.55;2.42;;;38.10;25.10;;;;;;7597763;23;20073;-70
2022/05/21 12:03:56;;;;;;;6.70;2.00;;;38.30;25.10;;;;;;7548633;23;20018;-69
2022/05/21 12:06:57;;;;;;;4.43;2.33;;;38.50;24.70;;;;;;7597542;23;20369;-69
2022/05/21 12:10:08;;;;;;;4.00;1.65;;;38.70;24.50;;;;;;7548566;23;20334;-70
2022/05/21 12:13:16;;;;;;;7.57;1.98;;;38.70;24.30;;;;;;7571789;23;20033;-69
2022/05/21 12:16:20;;;;;;;4.22;2.10;;;38.80;24.20;;;;;;7634942;23;20352;-69
2022/05/21 12:19:43;;;;;;;5.55;2.08;;;38.90;23.90;;;;;;7674483;23;20491;-69
2022/05/21 12:22:53;;;;;;;8.50;2.22;;;39.00;23.80;;;;;;7645174;23;20017;-70
2022/05/21 12:25:57;;;;;;;6.93;2.75;;;39.20;23.60;;;;;;7673573;23;20020;-70
2022/05/21 12:29:25;;;;;;;3.58;2.28;;;39.20;23.50;;;;;;7648080;23;20016;-72
2022/05/21 12:32:27;;;;;;;3.60;2.00;;;39.40;23.30;;;;;;7644053;23;20020;-70
2022/05/21 12:35:50;;;;;;;6.78;1.77;;;39.60;23.10;;;;;;7673063;23;20128;-69
2022/05/21 12:38:52;;;;;;;4.88;2.15;;;39.60;22.90;;;;;;7669356;23;20009;-71
2022/05/21 12:42:01;;;;;;;14.13;4.65;;;39.80;22.80;;;;;;7670679;23;20471;-70
2022/05/21 12:45:02;;;;;;;6.00;2.38;;;40.00;22.70;;;;;;7671932;23;20399;-70
2022/05/21 12:48:12;;;;;;;4.45;2.45;;;40.10;22.50;;;;;;7672524;23;20385;-70
2022/05/21 12:51:23;;;;;;;5.40;2.28;;;40.30;22.30;;;;;;7672433;23;20036;-70
2022/05/21 12:54:28;;;;;;;6.97;2.60;;;40.60;22.10;;;;;;7669786;23;20028;-69
2022/05/21 12:57:31;;;;;;;10.30;2.38;;;40.80;21.80;;;;;;7672781;23;20320;-69
2022/05/21 13:00:33;;;;;;;8.45;2.38;;;41.00;21.60;;;;;;7675271;23;20009;-70
2022/05/21 13:03:36;;;;;;;3.58;1.98;;;41.30;21.30;;;;;;7672041;23;20067;-70
2022/05/21 13:06:37;;;;;;;7.78;1.90;;;41.60;21.00;;;;;;7682509;23;20012;-70
2022/05/21 13:09:57;;;;;;;6.07;1.83;;;41.80;20.70;;;;;;7681685;23;20272;-70
2022/05/21 13:13:10;;;;;;;3.85;1.90;;;42.10;20.60;;;;;;7656682;23;20016;-69
2022/05/21 13:16:19;;;;;;;3.75;1.83;;;42.40;20.20;;;;;;7708759;23;20051;-69
2022/05/21 13:19:40;;;;;;;9.20;2.03;;;42.70;20.00;;;;;;7674748;23;20025;-68
2022/05/21 13:22:57;;;;;;;8.88;2.20;;;43.00;19.70;;;;;;7607453;23;20028;-70
2022/05/21 13:25:59;;;;;;;8.23;2.33;;;43.40;19.20;;;;;;7610837;23;20089;-70
2022/05/21 13:29:16;;;;;;;12.95;2.33;;;43.90;19.00;;;;;;7632643;23;20101;-70
2022/05/21 13:32:29;;;;;;;5.95;2.03;;;44.20;18.60;;;;;;7584033;23;20036;-71
2022/05/21 13:35:39;;;;;;;7.38;2.53;;;44.50;18.20;;;;;;7667393;23;20079;-69
2022/05/21 13:38:43;;;;;;;5.20;1.90;;;44.80;18.10;;;;;;7588882;23;20023;-69
2022/05/21 13:41:44;;;;;;;8.93;2.15;;;45.00;18.00;;;;;;7635763;23;20447;-69
2022/05/21 13:44:49;;;;;;;10.20;2.25;;;45.20;17.70;;;;;;7609579;23;20072;-69
2022/05/21 13:47:57;;;;;;;3.40;1.85;;;45.40;17.60;;;;;;7672833;23;20025;-70
2022/05/21 13:50:58;;;;;;;4.68;1.80;;;45.60;17.40;;;;;;7669860;23;20033;-69
2022/05/21 13:54:00;;;;;;;6.03;2.60;;;45.80;17.30;;;;;;7670916;23;20328;-70
2022/05/21 13:57:11;;;;;;;8.90;1.95;;;46.10;17.10;;;;;;7672598;23;20020;-70
2022/05/21 14:00:20;;;;;;;7.28;1.83;;;46.50;17.10;;;;;;7670789;23;20043;-71
2022/05/21 14:03:43;;;;;;;6.05;1.92;;;46.80;16.80;;;;;;7669497;23;20032;-70
2022/05/21 14:06:45;;;;;;;5.88;2.10;;;46.70;16.70;;;;;;7671436;23;20016;-70
2022/05/21 14:09:48;;;;;;;6.00;2.00;;;46.70;16.60;;;;;;7644686;23;20096;-70
2022/05/21 14:12:52;;;;;;;7.78;1.85;;;46.80;16.60;;;;;;7672047;23;20032;-70
2022/05/21 14:15:53;;;;;;;2.42;2.15;;;46.90;16.50;;;;;;7645814;23;20051;-70
2022/05/21 14:19:16;;;;;;;6.03;1.88;;;47.00;16.30;;;;;;7671672;23;20088;-71
2022/05/21 14:22:21;;;;;;;4.05;1.95;;;47.00;16.30;;;;;;7681585;23;20018;-71
2022/05/21 14:25:38;;;;;;;3.30;2.05;;;47.20;16.20;;;;;;7682926;23;20057;-71
2022/05/21 14:28:39;;;;;;;;;;;47.30;16.10;;;;;;7703883;23;20063;-70
2022/05/21 14:31:40;;;;;;;6.00;1.80;;;47.50;15.90;;;;;;7693692;23;19950;-70
2022/05/21 14:34:43;;;;;;;9.80;2.53;;;47.60;15.90;;;;;;7708611;23;20150;-70
2022/05/21 14:37:46;;;;;;;8.00;2.28;;;47.50;15.70;;;;;;7680914;23;20040;-70
2022/05/21 14:40:52;;;;;;;4.03;2.00;;;47.30;15.90;;;;;;7682687;23;20024;-69
2022/05/21 14:43:53;;;;;;;7.07;2.00;;;47.10;15.80;;;;;;7658140;23;20017;-69
2022/05/21 14:53:48;;;;;;;4.47;1.83;;;47.20;15.80;;;;;;7681159;23;20082;-69
2022/05/21 14:56:48;;;;;;;8.93;2.25;;;47.20;15.80;;;;;;7682134;23;20428;-69
2022/05/21 14:59:50;;;;;;;5.90;1.95;;;46.70;15.90;;;;;;7681842;23;20032;-69
2022/05/21 15:02:50;;;;;;;5.53;2.40;;;45.50;16.70;;;;;;7681606;23;20425;-69
2022/05/21 15:05:51;;;;;;;6.07;2.25;;;44.30;17.40;;;;;;7705785;23;20016;-69
2022/05/21 15:08:56;;;;;;;4.38;2.05;;;43.10;18.10;;;;;;7682806;23;20028;-69
2022/05/21 15:11:57;;;;;;;4.35;2.10;;;42.20;18.70;;;;;;7681781;23;20094;-70
2022/05/21 15:14:58;;;;;;;8.00;2.40;;;41.50;19.20;;;;;;7707369;23;20012;-68
2022/05/21 15:17:59;;;;;;;7.65;2.13;;;41.20;19.40;;;;;;7657339;23;20024;-68
2022/05/21 15:21:00;;;;;;;4.45;2.47;;;41.70;19.10;;;;;;7681455;23;20983;-68
2022/05/21 15:24:01;;;;;;;7.90;2.33;;;42.40;18.60;;;;;;7707989;23;20017;-69
2022/05/21 15:27:02;;;;;;;4.57;1.92;;;43.10;18.10;;;;;;7654935;23;20034;-69
2022/05/21 15:30:07;;;;;;;8.93;2.17;;;43.70;17.60;;;;;;7706884;23;20032;-69
2022/05/21 15:33:08;;;;;;;5.05;1.92;;;44.30;17.30;;;;;;7654916;23;20347;-70
2022/05/21 15:36:09;;;;;;;6.38;1.85;;;44.70;16.90;;;;;;7656586;23;20104;-70
2022/05/21 15:39:10;;;;;;;9.18;2.42;;;45.00;16.60;;;;;;7706923;23;20012;-68
2022/05/21 15:42:11;;;;;;;6.22;2.00;;;45.20;16.40;;;;;;7681336;23;20454;-69
2022/05/21 15:45:14;;;;;;;4.93;1.83;;;45.20;16.30;;;;;;7680951;23;20042;-69
2022/05/21 15:48:15;;;;;;;4.65;2.00;;;45.20;16.30;;;;;;7707018;23;20036;-69
2022/05/21 15:51:19;;;;;;;7.25;2.10;;;45.50;16.20;;;;;;7680416;23;20100;-68
2022/05/21 15:54:20;;;;;;;8.65;1.60;;;45.50;16.20;;;;;;7681159;23;20036;-68
2022/05/21 15:57:24;;;;;;;8.38;2.00;;;45.30;16.30;;;;;;7640811;23;20009;-68
2022/05/21 16:00:25;;;;;;;12.10;1.98;;;45.40;16.30;;;;;;7681385;23;20420;-68
2022/05/21 16:03:26;;;;;;;4.95;1.95;;;45.50;16.30;;;;;;7656653;23;20023;-68
2022/05/21 16:06:29;;;;;;;8.48;2.13;;;45.60;16.20;;;;;;7704488;23;20435;-68
2022/05/21 16:09:30;;;;;;;5.30;2.38;;;45.50;16.20;;;;;;7654831;23;20115;-69
2022/05/21 16:12:32;;;;;;;13.90;2.30;;;45.30;16.30;;;;;;7679681;23;20292;-68
2022/05/21 16:15:40;;;;;;;16.60;2.00;;;45.20;16.40;;;;;;7679888;23;20016;-68
2022/05/21 16:18:43;;;;;;;10.02;2.33;;;45.10;16.50;;;;;;7680762;23;20071;-67
2022/05/21 16:21:44;;;;;;;7.82;2.17;;;45.00;16.50;;;;;;7707966;23;20027;-67
2022/05/21 16:24:46;;;;;;;8.30;2.35;;;45.10;16.40;;;;;;7683123;23;20288;-67
2022/05/21 16:27:47;;;;;;;9.70;2.65;;;44.90;16.50;;;;;;7706828;23;20004;-68
2022/05/21 16:30:50;;;;;;;8.07;2.20;;;44.90;16.60;;;;;;7681264;23;20047;-68
2022/05/21 16:33:50;;;;;;;6.03;2.47;;;44.50;16.70;;;;;;7681795;23;20091;-69
2022/05/21 16:36:51;;;;;;;6.78;1.85;;;43.80;17.20;;;;;;7683066;23;20019;-68
2022/05/21 16:39:53;;;;;;;6.80;1.83;;;42.90;17.70;;;;;;7681695;23;20032;-68
2022/05/21 16:42:54;;;;;;;7.38;2.03;;;42.10;18.30;;;;;;7682465;23;20027;-68
2022/05/21 16:45:55;;;;;;;12.52;2.30;;;41.50;19.10;;;;;;7709094;23;20016;-68
2022/05/21 16:48:56;;;;;;;6.43;2.10;;;41.00;18.90;;;;;;7707833;23;20331;-68
2022/05/21 16:51:57;;;;;;;5.25;2.00;;;40.30;19.40;;;;;;7708399;23;20017;-68